Emmons, Minnesota
Current Conditions -  °F | °C
As of 2:14 AM on Tuesday 27 Jan 2015 (Local Time) from KAEL Reporting Station
Overcast Overcast  
Wind Chill: 30°   Ceiling: 2600
Heat Index: 34°   Visibility: 10mi
Dew Point: 30°   Wind: 5mph
Humidity: 87%   Direction: 320°NW
Pressure: 30.01"   Gusts: NA
Location:  43.5°N, 93.49°W
Report Text: KAEL 270814Z AUTO 32004KT 10SM OVC026 01/M01 A3001 RMK AO2
Loading
Personal Weather Stations






























Interactive Weather Map New forecast layout! Learn more

10-Day Weather Forecast

Advertisements
Track Severe Weather on mobile